createdAt,value
2022-08-20T00:00:37.662Z,1016.4
2022-08-20T00:15:33.516Z,1016.4
2022-08-20T00:30:29.697Z,1016.4
2022-08-20T00:45:26.269Z,1016.5
2022-08-20T01:00:21.860Z,1016.5
2022-08-20T01:15:17.797Z,1016.5
2022-08-20T01:30:13.314Z,1016.5
2022-08-20T01:45:09.302Z,1016.4
2022-08-20T02:00:05.269Z,1016.3
2022-08-20T02:15:01.273Z,1016.5
2022-08-20T02:29:57.379Z,1016.5
2022-08-20T02:44:53.411Z,1016.5
2022-08-20T02:59:50.057Z,1016.7
2022-08-20T03:14:46.222Z,1016.6
2022-08-20T03:44:39.006Z,1016.7
2022-08-20T03:59:35.731Z,1016.6
2022-08-20T04:14:31.631Z,1016.7
2022-08-20T04:29:31.905Z,1016.7
2022-08-20T04:44:24.601Z,1016.8
2022-08-20T04:59:20.420Z,1017
2022-08-20T05:14:15.748Z,1017.1
2022-08-20T05:29:11.958Z,1017.2
2022-08-20T05:44:08.697Z,1017.4
2022-08-20T05:59:04.872Z,1017.3
2022-08-20T06:14:01.349Z,1017.4
2022-08-20T06:28:57.503Z,1017.5
2022-08-20T06:43:53.703Z,1017.6
2022-08-20T06:58:50.468Z,1017.6
2022-08-20T07:13:47.287Z,1017.6
2022-08-20T07:28:43.803Z,1017.7
2022-08-20T07:43:39.645Z,1017.8
2022-08-20T08:13:32.498Z,1017.9
2022-08-20T08:28:29.093Z,1017.9
2022-08-20T08:43:25.448Z,1018
2022-08-20T08:58:21.696Z,1018.2
2022-08-20T09:13:17.533Z,1018.1
2022-08-20T09:28:14.037Z,1018.1
2022-08-20T09:43:10.853Z,1018.2
2022-08-20T09:58:07.746Z,1018
2022-08-20T10:13:05.129Z,1018.1
2022-08-20T10:28:01.844Z,1018
2022-08-20T10:42:59.082Z,1018.1
2022-08-20T10:57:55.780Z,1018.1
2022-08-20T11:12:52.167Z,1018.2
2022-08-20T11:27:48.829Z,1018.2
2022-08-20T11:42:58.589Z,1018.1
2022-08-20T11:57:40.682Z,1018.3
2022-08-20T12:12:36.654Z,1018.3
2022-08-20T12:27:32.903Z,1018.2
2022-08-20T12:42:29.035Z,1018.1
2022-08-20T12:57:25.822Z,1018.2
2022-08-20T13:12:21.819Z,1018.1
2022-08-20T13:27:17.963Z,1018
2022-08-20T13:42:13.881Z,1018.1
2022-08-20T13:57:10.324Z,1018.1
2022-08-20T14:12:05.823Z,1018
2022-08-20T14:27:01.826Z,1018.1
2022-08-20T14:41:58.352Z,1018.1
2022-08-20T14:56:54.089Z,1018
2022-08-20T15:11:50.073Z,1017.9
2022-08-20T15:26:46.532Z,1017.8
2022-08-20T15:41:42.760Z,1017.8
2022-08-20T15:56:39.319Z,1017.8
2022-08-20T16:11:35.763Z,1017.8
2022-08-20T16:26:32.369Z,1017.8
2022-08-20T16:41:28.246Z,1017.8
2022-08-20T16:56:24.217Z,1017.7
2022-08-20T17:11:20.617Z,1017.7
2022-08-20T17:26:16.714Z,1017.7
2022-08-20T17:41:16.707Z,1017.8
2022-08-20T17:56:08.616Z,1017.9
2022-08-20T18:11:04.833Z,1017.9
2022-08-20T18:26:00.793Z,1018.1
2022-08-20T18:40:56.728Z,1018.2
2022-08-20T18:55:52.723Z,1018.2
2022-08-20T19:10:48.851Z,1018.3
2022-08-20T19:25:44.803Z,1018.3
2022-08-20T19:40:43.558Z,1018.3
2022-08-20T19:55:35.628Z,1018.3
2022-08-20T20:10:32.617Z,1018.5
2022-08-20T20:25:27.621Z,1018.6
2022-08-20T20:40:23.500Z,1018.7
2022-08-20T20:55:19.373Z,1018.6
2022-08-20T21:10:15.260Z,1018.5
2022-08-20T21:25:11.573Z,1018.7
2022-08-20T21:40:07.224Z,1018.7
2022-08-20T21:55:03.855Z,1018.7
2022-08-20T22:09:59.545Z,1018.8
2022-08-20T22:24:55.634Z,1018.9
2022-08-20T22:39:51.475Z,1018.8
2022-08-20T22:54:47.324Z,1018.9
2022-08-20T23:09:43.311Z,1018.9
2022-08-20T23:24:39.159Z,1018.9
2022-08-20T23:39:35.294Z,1018.9
2022-08-20T23:54:31.478Z,1018.9
